DWU weather

Ashland Regional Airport
Ashland, Kentucky, United States

Public forecast

Using degrees Fahrenheit for public forecast. Weather courtesy of forecast.io.

Current aviation weather report (METAR) for Ashland Regional Airport

Retrieved 2019/10/21 18:56 UTC (11 minutes ago):

KDWU 211856Z AUTO RMK AO2 SLPNO PWINO FZRANO RVRNO

Closest aviation forecast (TAF) to Ashland Regional Airport

Closest forecast is Tri-State/Milton J. Ferguson Field, 14.1 nm (26.1 km) SE. Retrieved 2019/10/21 18:30 UTC (37 minutes ago):

TAF KHTS 211729Z 2118/2218 20011KT P6SM FEW250 FM220200 18010G16KT P6SM BKN100 FM220300 20008G15KT 5SM -SHRA BKN035 OVC100 FM220800 23007KT 3SM SHRA BR SCT010 OVC025 FM221200 23005KT P6SM OVC050 FM221300 24006KT P6SM BKN060